createdAt,value
2022-09-07T00:01:13.557Z,20.20
2022-09-07T00:03:43.306Z,20.10
2022-09-07T00:06:14.326Z,20.10
2022-09-07T00:08:44.301Z,20.00
2022-09-07T00:11:14.773Z,20.00
2022-09-07T00:13:44.447Z,20.00
2022-09-07T00:16:15.640Z,20.00
2022-09-07T00:18:46.669Z,19.90
2022-09-07T00:21:17.136Z,19.90
2022-09-07T00:23:45.822Z,19.90
2022-09-07T00:26:16.720Z,19.90
2022-09-07T00:28:45.935Z,19.90
2022-09-07T00:31:17.323Z,19.90
2022-09-07T00:33:49.032Z,19.90
2022-09-07T00:36:18.006Z,19.90
2022-09-07T00:38:46.926Z,19.90
2022-09-07T00:41:16.297Z,19.90
2022-09-07T00:43:50.309Z,19.90
2022-09-07T00:46:20.098Z,20.00
2022-09-07T00:48:54.814Z,20.00
2022-09-07T00:51:30.102Z,20.00
2022-09-07T00:54:02.267Z,20.10
2022-09-07T00:56:37.786Z,20.10
2022-09-07T00:59:06.914Z,20.10
2022-09-07T01:01:39.048Z,20.10
2022-09-07T01:04:09.968Z,20.20
2022-09-07T01:06:42.379Z,20.10
2022-09-07T01:09:13.233Z,20.10
2022-09-07T01:11:43.727Z,20.00
2022-09-07T01:14:16.597Z,19.90
2022-09-07T01:16:58.543Z,19.70
2022-09-07T01:20:07.423Z,19.70
2022-09-07T01:22:53.059Z,19.60
2022-09-07T01:25:36.866Z,19.40
2022-09-07T01:28:14.917Z,19.30
2022-09-07T01:30:52.681Z,19.20
2022-09-07T01:33:35.162Z,19.10
2022-09-07T01:36:12.189Z,18.90
2022-09-07T01:38:46.048Z,18.90
2022-09-07T01:41:20.049Z,18.80
2022-09-07T01:43:54.638Z,18.70
2022-09-07T01:46:28.801Z,18.70
2022-09-07T01:49:04.811Z,18.70
2022-09-07T01:51:38.941Z,18.70
2022-09-07T01:54:12.422Z,18.80
2022-09-07T01:56:44.581Z,18.80
2022-09-07T01:59:21.298Z,18.80
2022-09-07T02:01:54.871Z,18.80
2022-09-07T02:04:27.510Z,18.90
2022-09-07T02:06:59.622Z,18.90
2022-09-07T02:09:34.324Z,19.00
2022-09-07T02:12:08.936Z,19.00
2022-09-07T02:14:42.092Z,19.10
2022-09-07T02:17:17.051Z,19.10
2022-09-07T02:19:52.472Z,19.00
2022-09-07T02:22:27.502Z,18.90
2022-09-07T02:24:59.111Z,19.00
2022-09-07T02:27:34.639Z,18.70
2022-09-07T02:30:05.109Z,18.40
2022-09-07T02:32:33.916Z,18.30
2022-09-07T02:35:02.566Z,18.10
2022-09-07T02:37:31.416Z,18.00
2022-09-07T02:40:00.348Z,17.90
2022-09-07T02:42:30.685Z,17.90
2022-09-07T02:44:59.252Z,17.80
2022-09-07T02:47:46.081Z,17.80
2022-09-07T02:50:30.003Z,17.80
2022-09-07T02:53:15.368Z,17.90
2022-09-07T02:55:55.674Z,17.90
2022-09-07T02:58:35.707Z,17.80
2022-09-07T03:01:10.897Z,17.80
2022-09-07T03:03:52.089Z,17.80
2022-09-07T03:06:25.258Z,17.70
2022-09-07T03:08:57.055Z,17.60
2022-09-07T03:11:26.068Z,17.60
2022-09-07T03:14:11.730Z,17.60
2022-09-07T03:16:40.782Z,17.60
2022-09-07T03:19:10.769Z,17.60
2022-09-07T03:21:39.088Z,17.60
2022-09-07T03:24:08.053Z,17.60
2022-09-07T03:26:44.229Z,17.60
2022-09-07T03:29:12.691Z,17.60
2022-09-07T03:31:41.696Z,17.60
2022-09-07T03:34:11.518Z,17.60
2022-09-07T03:36:40.137Z,17.60
2022-09-07T03:39:08.842Z,17.60
2022-09-07T03:41:37.592Z,17.60
2022-09-07T03:44:07.666Z,17.60
2022-09-07T03:46:36.174Z,17.70
2022-09-07T03:49:04.970Z,17.60
2022-09-07T03:51:34.789Z,17.70
2022-09-07T03:54:03.100Z,17.60
2022-09-07T03:56:31.483Z,17.70
2022-09-07T03:59:00.290Z,17.70
2022-09-07T04:01:29.292Z,17.70
2022-09-07T04:04:02.203Z,17.70
2022-09-07T04:06:31.795Z,17.70
2022-09-07T04:09:04.343Z,17.70
2022-09-07T04:11:32.656Z,17.70
2022-09-07T04:14:01.604Z,17.70
2022-09-07T04:16:29.987Z,17.60
2022-09-07T04:18:59.338Z,17.60
2022-09-07T04:21:30.541Z,17.60
2022-09-07T04:23:59.333Z,17.60
2022-09-07T04:26:33.583Z,17.70
2022-09-07T04:29:02.744Z,17.60
2022-09-07T04:31:31.837Z,17.60
2022-09-07T04:34:00.261Z,17.60
2022-09-07T04:36:29.215Z,17.60
2022-09-07T04:38:59.435Z,17.60
2022-09-07T04:41:30.259Z,17.50
2022-09-07T04:44:01.616Z,17.60
2022-09-07T04:46:31.392Z,17.60
2022-09-07T04:49:01.779Z,17.50
2022-09-07T04:51:32.374Z,17.40
2022-09-07T04:54:02.771Z,17.50
2022-09-07T04:56:33.422Z,17.60
2022-09-07T04:59:03.041Z,17.50
2022-09-07T05:01:31.712Z,17.40
2022-09-07T05:04:01.347Z,17.40
2022-09-07T05:06:30.331Z,17.40
2022-09-07T05:09:00.277Z,17.30
2022-09-07T05:11:30.130Z,17.30
2022-09-07T05:14:01.458Z,17.20
2022-09-07T05:16:31.376Z,17.20
2022-09-07T05:19:01.380Z,17.20
2022-09-07T05:21:31.641Z,17.20
2022-09-07T05:24:01.290Z,17.20
2022-09-07T05:26:31.412Z,17.30
2022-09-07T05:31:52.837Z,17.40
2022-09-07T05:36:56.695Z,17.40
2022-09-07T05:39:25.143Z,17.40
2022-09-07T05:41:54.123Z,17.50
2022-09-07T05:47:12.927Z,17.50
2022-09-07T05:49:41.405Z,17.60
2022-09-07T05:52:09.931Z,17.70
2022-09-07T05:54:38.255Z,17.80
2022-09-07T05:57:07.102Z,17.80
2022-09-07T05:59:36.775Z,17.90
2022-09-07T06:02:05.700Z,17.90
2022-09-07T06:04:34.654Z,18.00
2022-09-07T06:07:22.078Z,17.90
2022-09-07T06:12:38.949Z,18.00
2022-09-07T06:15:10.063Z,18.10
2022-09-07T06:17:38.404Z,18.20
2022-09-07T06:20:08.214Z,18.30
2022-09-07T06:22:37.223Z,18.30
2022-09-07T06:25:06.295Z,18.30
2022-09-07T06:27:34.872Z,18.30
2022-09-07T06:30:03.193Z,18.30
2022-09-07T06:32:48.102Z,18.40
2022-09-07T06:35:16.809Z,18.40
2022-09-07T06:37:45.210Z,18.30
2022-09-07T06:40:13.877Z,18.40
2022-09-07T06:42:42.342Z,18.30
2022-09-07T06:45:12.231Z,18.40
2022-09-07T06:47:42.379Z,18.40
2022-09-07T06:50:12.866Z,18.50
2022-09-07T06:55:30.411Z,18.70
2022-09-07T06:57:58.743Z,18.80
2022-09-07T07:00:27.555Z,18.90
2022-09-07T07:02:57.234Z,19.00
2022-09-07T07:05:25.696Z,19.00
2022-09-07T07:07:56.287Z,19.10
2022-09-07T07:10:25.260Z,19.20
2022-09-07T07:12:57.495Z,19.10
2022-09-07T07:15:31.021Z,19.10
2022-09-07T07:18:20.427Z,19.20
2022-09-07T07:20:49.141Z,19.40
2022-09-07T07:23:17.804Z,19.50
2022-09-07T07:25:46.736Z,19.60
2022-09-07T07:31:09.514Z,19.70
2022-09-07T07:33:41.661Z,19.90
2022-09-07T07:36:15.381Z,20.00
2022-09-07T07:39:01.256Z,20.10
2022-09-07T07:44:21.440Z,20.40
2022-09-07T07:46:52.431Z,20.40
2022-09-07T07:49:22.116Z,20.40
2022-09-07T07:54:43.699Z,20.70
2022-09-07T07:57:12.913Z,20.70
2022-09-07T07:59:42.453Z,20.90
2022-09-07T08:02:24.995Z,20.90
2022-09-07T08:04:54.759Z,21.00
2022-09-07T08:07:23.109Z,21.20
2022-09-07T08:09:51.701Z,21.20
2022-09-07T08:12:21.452Z,21.40
2022-09-07T08:14:49.726Z,21.40
2022-09-07T08:17:18.886Z,21.50
2022-09-07T08:19:48.541Z,21.40
2022-09-07T08:22:18.263Z,21.50
2022-09-07T08:24:47.135Z,21.40
2022-09-07T08:27:15.452Z,21.30
2022-09-07T08:29:43.709Z,21.40
2022-09-07T08:32:12.035Z,21.60
2022-09-07T08:34:40.562Z,21.80
2022-09-07T08:37:08.689Z,21.80
2022-09-07T08:39:38.259Z,21.80
2022-09-07T08:42:27.903Z,21.80
2022-09-07T08:45:01.649Z,21.70
2022-09-07T08:47:36.453Z,21.60
2022-09-07T08:50:10.329Z,21.60
2022-09-07T08:52:48.140Z,21.60
2022-09-07T08:55:22.444Z,21.80
2022-09-07T08:57:57.969Z,21.80
2022-09-07T09:00:26.889Z,21.80
2022-09-07T09:05:56.011Z,22.20
2022-09-07T09:08:42.933Z,22.20
2022-09-07T09:11:18.834Z,22.20
2022-09-07T09:14:03.354Z,22.20
2022-09-07T09:16:36.140Z,22.30
2022-09-07T09:19:29.429Z,22.50
2022-09-07T09:22:11.168Z,22.50
2022-09-07T09:24:46.419Z,22.70
2022-09-07T09:27:16.893Z,22.70
2022-09-07T09:29:45.441Z,22.90
2022-09-07T09:32:33.217Z,22.90
2022-09-07T09:35:13.453Z,22.90
2022-09-07T09:37:43.407Z,22.90
2022-09-07T09:40:26.263Z,22.80
2022-09-07T09:43:08.689Z,22.90
2022-09-07T09:48:35.541Z,23.30
2022-09-07T09:53:59.917Z,23.30
2022-09-07T09:56:42.192Z,23.50
2022-09-07T10:05:37.982Z,23.50
2022-09-07T10:08:19.438Z,23.50
2022-09-07T10:10:55.966Z,23.50
2022-09-07T10:13:28.760Z,23.60
2022-09-07T10:16:00.515Z,23.80
2022-09-07T10:18:36.068Z,23.90
2022-09-07T10:21:25.514Z,23.90
2022-09-07T10:23:58.133Z,23.90
2022-09-07T10:26:32.833Z,23.80
2022-09-07T10:29:16.509Z,23.90
2022-09-07T10:32:14.855Z,23.90
2022-09-07T10:34:55.826Z,24.10
2022-09-07T10:37:35.501Z,24.30
2022-09-07T10:40:17.402Z,24.30
2022-09-07T10:45:53.050Z,24.40
2022-09-07T10:48:31.064Z,24.40
2022-09-07T10:51:12.704Z,24.70
2022-09-07T10:53:47.180Z,24.70
2022-09-07T10:56:22.148Z,24.80
2022-09-07T10:59:04.642Z,24.80
2022-09-07T11:01:47.082Z,25.00
2022-09-07T11:04:38.425Z,25.40
2022-09-07T11:07:16.290Z,26.90
2022-09-07T11:09:56.529Z,27.80
2022-09-07T11:12:29.837Z,28.40
2022-09-07T11:15:09.359Z,29.10
2022-09-07T11:17:48.284Z,27.50
2022-09-07T11:20:26.179Z,26.40
2022-09-07T11:23:01.625Z,25.90
2022-09-07T11:25:36.349Z,25.20
2022-09-07T11:28:13.830Z,25.40
2022-09-07T11:30:47.046Z,26.10
2022-09-07T11:33:21.434Z,27.30
2022-09-07T11:35:54.704Z,27.60
2022-09-07T11:38:26.850Z,27.70
2022-09-07T11:41:10.240Z,28.20
2022-09-07T11:43:43.973Z,28.30
2022-09-07T11:46:16.139Z,28.10
2022-09-07T11:48:48.660Z,28.00
2022-09-07T11:51:23.462Z,27.70
2022-09-07T11:53:56.094Z,26.90
2022-09-07T11:56:29.945Z,26.20
2022-09-07T11:59:27.908Z,26.10
2022-09-07T12:02:18.807Z,26.60
2022-09-07T12:05:01.132Z,26.60
2022-09-07T12:07:52.083Z,27.00
2022-09-07T12:10:39.142Z,27.50
2022-09-07T12:13:46.356Z,28.20
2022-09-07T12:16:20.825Z,28.50
2022-09-07T12:19:20.030Z,28.20
2022-09-07T12:22:08.755Z,27.80
2022-09-07T12:24:44.555Z,27.60
2022-09-07T12:27:40.610Z,27.80
2022-09-07T12:30:54.753Z,27.80
2022-09-07T12:33:35.552Z,27.00
2022-09-07T12:36:31.610Z,26.70
2022-09-07T12:39:24.732Z,26.80
2022-09-07T12:45:45.098Z,26.60
2022-09-07T12:48:33.152Z,27.20
2022-09-07T12:51:07.563Z,27.70
2022-09-07T12:53:55.541Z,27.20
2022-09-07T12:56:42.718Z,27.00
2022-09-07T12:59:37.932Z,27.10
2022-09-07T13:02:33.155Z,27.10
2022-09-07T13:05:15.385Z,27.10
2022-09-07T13:08:08.979Z,27.60
2022-09-07T13:10:39.113Z,27.60
2022-09-07T13:13:16.829Z,28.20
2022-09-07T13:15:48.911Z,28.50
2022-09-07T13:18:43.206Z,28.00
2022-09-07T13:21:41.484Z,27.60
2022-09-07T13:24:50.337Z,28.70
2022-09-07T13:27:43.484Z,29.40
2022-09-07T13:31:00.067Z,28.30
2022-09-07T13:33:49.381Z,27.60
2022-09-07T13:36:25.579Z,28.00
2022-09-07T13:38:56.033Z,28.20
2022-09-07T13:41:29.944Z,28.40
2022-09-07T13:44:05.734Z,27.80
2022-09-07T13:46:48.296Z,27.20
2022-09-07T13:49:35.433Z,27.20
2022-09-07T13:52:13.848Z,27.30
2022-09-07T13:54:56.320Z,27.20
2022-09-07T13:57:34.149Z,27.20
2022-09-07T14:00:02.190Z,27.50
2022-09-07T14:02:39.818Z,28.20
2022-09-07T14:05:12.765Z,28.20
2022-09-07T14:07:46.662Z,27.90
2022-09-07T14:10:19.917Z,27.70
2022-09-07T14:12:50.429Z,27.50
2022-09-07T14:15:30.368Z,27.20
2022-09-07T14:18:08.110Z,26.90
2022-09-07T14:20:41.565Z,26.70
2022-09-07T14:23:21.086Z,26.50
2022-09-07T14:28:39.391Z,26.50
2022-09-07T14:31:12.001Z,26.70
2022-09-07T14:33:46.806Z,26.50
2022-09-07T14:36:37.376Z,26.60
2022-09-07T14:39:13.318Z,27.10
2022-09-07T14:41:42.083Z,27.20
2022-09-07T14:44:29.285Z,27.60
2022-09-07T14:46:59.172Z,27.80
2022-09-07T14:49:29.001Z,27.00
2022-09-07T14:51:57.627Z,26.70
2022-09-07T14:54:28.711Z,26.80
2022-09-07T14:57:06.880Z,26.70
2022-09-07T14:59:40.564Z,26.40
2022-09-07T15:02:35.838Z,26.30
2022-09-07T15:05:32.535Z,26.10
2022-09-07T15:08:02.646Z,26.00
2022-09-07T15:10:37.368Z,26.10
2022-09-07T15:13:22.913Z,26.10
2022-09-07T15:16:02.338Z,26.00
2022-09-07T15:18:52.362Z,26.00
2022-09-07T15:21:22.535Z,26.00
2022-09-07T15:23:52.068Z,26.00
2022-09-07T15:29:18.235Z,25.70
2022-09-07T15:31:59.293Z,25.80
2022-09-07T15:34:32.050Z,25.80
2022-09-07T15:37:02.405Z,25.80
2022-09-07T15:39:31.332Z,25.70
2022-09-07T15:42:58.997Z,25.70
2022-09-07T15:44:47.666Z,25.60
2022-09-07T15:50:05.503Z,26.00
2022-09-07T15:52:35.137Z,26.10
2022-09-07T15:55:03.571Z,26.20
2022-09-07T15:57:49.349Z,26.20
2022-09-07T16:00:19.966Z,26.20
2022-09-07T16:03:05.881Z,26.00
2022-09-07T16:05:35.496Z,25.80
2022-09-07T16:10:55.172Z,25.60
2022-09-07T16:13:24.689Z,25.50
2022-09-07T16:15:53.220Z,25.50
2022-09-07T16:18:21.513Z,25.40
2022-09-07T16:20:52.738Z,25.50
2022-09-07T16:23:22.833Z,25.40
2022-09-07T16:25:58.774Z,25.40
2022-09-07T16:28:27.821Z,25.40
2022-09-07T16:30:56.619Z,25.30
2022-09-07T16:33:31.574Z,25.20
2022-09-07T16:36:06.962Z,25.10
2022-09-07T16:38:44.751Z,25.00
2022-09-07T16:41:14.635Z,25.00
2022-09-07T16:43:43.231Z,24.90
2022-09-07T16:46:14.816Z,24.90
2022-09-07T16:48:44.115Z,24.90
2022-09-07T16:51:14.258Z,24.80
2022-09-07T16:53:44.331Z,24.80
2022-09-07T16:56:16.540Z,24.70
2022-09-07T16:58:46.073Z,24.60
2022-09-07T17:01:17.092Z,24.60
2022-09-07T17:03:45.709Z,24.60
2022-09-07T17:06:15.185Z,24.50
2022-09-07T17:08:45.488Z,24.50
2022-09-07T17:11:15.713Z,24.50
2022-09-07T17:13:47.391Z,24.50
2022-09-07T17:16:17.536Z,24.50
2022-09-07T17:21:39.447Z,24.40
2022-09-07T17:24:12.018Z,24.30
2022-09-07T17:26:42.833Z,24.30
2022-09-07T17:29:13.086Z,24.30
2022-09-07T17:34:31.854Z,24.30
2022-09-07T17:37:02.032Z,24.20
2022-09-07T17:39:34.282Z,24.20
2022-09-07T17:42:02.692Z,24.20
2022-09-07T17:44:35.971Z,24.10
2022-09-07T17:47:06.695Z,24.10
2022-09-07T17:49:34.794Z,24.10
2022-09-07T17:52:03.794Z,24.10
2022-09-07T17:54:34.799Z,24.10
2022-09-07T17:57:03.227Z,24.00
2022-09-07T18:02:20.215Z,23.90
2022-09-07T18:04:49.015Z,23.90
2022-09-07T18:07:17.375Z,23.80
2022-09-07T18:09:46.910Z,23.80
2022-09-07T18:12:15.059Z,23.80
2022-09-07T18:14:43.902Z,23.80
2022-09-07T18:17:12.546Z,23.80
2022-09-07T18:19:40.644Z,23.70
2022-09-07T18:22:09.296Z,23.60
2022-09-07T18:24:37.555Z,23.60
2022-09-07T18:27:07.817Z,23.60
2022-09-07T18:29:36.141Z,23.60
2022-09-07T18:32:09.386Z,23.50
2022-09-07T18:34:40.660Z,23.50
2022-09-07T18:37:12.090Z,23.50
2022-09-07T18:39:41.189Z,23.40
2022-09-07T18:42:11.085Z,23.40
2022-09-07T18:47:29.550Z,23.30
2022-09-07T18:49:58.597Z,23.30
2022-09-07T18:55:15.860Z,23.30
2022-09-07T18:57:45.682Z,23.20
2022-09-07T19:00:15.175Z,23.20
2022-09-07T19:02:43.423Z,23.20
2022-09-07T19:08:03.187Z,23.10
2022-09-07T19:10:34.033Z,23.10
2022-09-07T19:13:03.769Z,23.10
2022-09-07T19:15:37.336Z,23.10
2022-09-07T19:18:07.824Z,23.00
2022-09-07T19:20:36.830Z,23.00
2022-09-07T19:23:05.686Z,22.90
2022-09-07T19:25:33.920Z,22.90
2022-09-07T19:28:03.862Z,22.80
2022-09-07T19:30:34.741Z,22.80
2022-09-07T19:33:04.518Z,22.70
2022-09-07T19:35:36.684Z,22.70
2022-09-07T19:38:05.513Z,22.60
2022-09-07T19:40:33.656Z,22.60
2022-09-07T19:43:03.459Z,22.50
2022-09-07T19:45:31.996Z,22.50
2022-09-07T19:48:01.596Z,22.50
2022-09-07T19:50:30.227Z,22.40
2022-09-07T19:52:58.754Z,22.40
2022-09-07T19:55:27.549Z,22.40
2022-09-07T19:57:55.780Z,22.40
2022-09-07T20:00:25.343Z,22.30
2022-09-07T20:02:54.911Z,22.30
2022-09-07T20:05:23.815Z,22.30
2022-09-07T20:07:51.977Z,22.20
2022-09-07T20:10:20.492Z,22.10
2022-09-07T20:12:48.723Z,22.10
2022-09-07T20:15:17.035Z,22.10
2022-09-07T20:17:47.322Z,22.00
2022-09-07T20:20:15.826Z,22.00
2022-09-07T20:22:43.972Z,21.90
2022-09-07T20:25:13.325Z,21.90
2022-09-07T20:27:41.687Z,21.80
2022-09-07T20:30:10.893Z,21.70
2022-09-07T20:32:38.978Z,21.60
2022-09-07T20:35:09.991Z,21.60
2022-09-07T20:37:38.242Z,21.50
2022-09-07T20:40:07.654Z,21.40
2022-09-07T20:42:36.005Z,21.30
2022-09-07T20:45:04.637Z,21.30
2022-09-07T20:47:32.916Z,21.30
2022-09-07T20:50:01.030Z,21.30
2022-09-07T20:52:31.008Z,21.30
2022-09-07T20:54:59.237Z,21.30
2022-09-07T20:57:27.707Z,21.30
2022-09-07T20:59:56.305Z,21.30
2022-09-07T21:02:24.793Z,21.30
2022-09-07T21:04:53.682Z,21.20
2022-09-07T21:07:21.848Z,21.10
2022-09-07T21:09:52.087Z,21.10
2022-09-07T21:12:20.366Z,21.10
2022-09-07T21:14:48.857Z,21.10
2022-09-07T21:17:17.002Z,21.10
2022-09-07T21:19:45.059Z,21.10
2022-09-07T21:22:13.428Z,21.00
2022-09-07T21:24:41.611Z,21.00
2022-09-07T21:27:11.161Z,21.00
2022-09-07T21:29:39.383Z,20.90
2022-09-07T21:32:07.634Z,20.90
2022-09-07T21:34:35.982Z,20.90
2022-09-07T21:37:04.160Z,20.80
2022-09-07T21:39:32.263Z,20.80
2022-09-07T21:42:00.371Z,20.80
2022-09-07T21:44:29.886Z,20.80
2022-09-07T21:46:58.179Z,20.80
2022-09-07T21:49:26.320Z,20.80
2022-09-07T21:51:55.654Z,20.80
2022-09-07T21:54:23.710Z,20.80
2022-09-07T21:56:53.164Z,20.80
2022-09-07T21:59:21.529Z,20.70
2022-09-07T22:01:51.268Z,20.70
2022-09-07T22:04:19.887Z,20.60
2022-09-07T22:06:48.071Z,20.60
2022-09-07T22:09:16.271Z,20.60
2022-09-07T22:11:46.171Z,20.60
2022-09-07T22:14:15.855Z,20.60
2022-09-07T22:16:44.124Z,20.50
2022-09-07T22:19:13.654Z,20.40
2022-09-07T22:21:41.761Z,20.40
2022-09-07T22:24:14.992Z,20.50
2022-09-07T22:26:43.150Z,20.50
2022-09-07T22:29:13.394Z,20.50
2022-09-07T22:31:41.948Z,20.50
2022-09-07T22:34:11.192Z,20.50
2022-09-07T22:36:42.489Z,20.50
2022-09-07T22:39:14.030Z,20.50
2022-09-07T22:41:43.611Z,20.40
2022-09-07T22:44:13.607Z,20.40
2022-09-07T22:46:43.643Z,20.40
2022-09-07T22:49:12.594Z,20.30
2022-09-07T22:51:42.128Z,20.30
2022-09-07T22:54:10.476Z,20.40
2022-09-07T22:56:40.210Z,20.40
2022-09-07T22:59:10.430Z,20.40
2022-09-07T23:01:39.052Z,20.40
2022-09-07T23:04:08.572Z,20.40
2022-09-07T23:06:38.864Z,20.40
2022-09-07T23:09:10.713Z,20.40
2022-09-07T23:11:39.454Z,20.40
2022-09-07T23:14:12.767Z,20.40
2022-09-07T23:16:41.501Z,20.40
2022-09-07T23:19:12.038Z,20.40
2022-09-07T23:21:40.510Z,20.40
2022-09-07T23:24:13.033Z,20.40
2022-09-07T23:26:41.156Z,20.40
2022-09-07T23:29:12.739Z,20.40
2022-09-07T23:31:41.832Z,20.40
2022-09-07T23:34:10.291Z,20.40
2022-09-07T23:36:38.590Z,20.40
2022-09-07T23:39:06.827Z,20.40
2022-09-07T23:41:36.365Z,20.40
2022-09-07T23:44:04.980Z,20.40
2022-09-07T23:46:33.571Z,20.40
2022-09-07T23:49:02.000Z,20.30
2022-09-07T23:51:30.141Z,20.30
2022-09-07T23:53:58.363Z,20.20
2022-09-07T23:56:26.645Z,20.30
2022-09-07T23:58:56.550Z,20.20
